sensor_id;sensor_type;location;lat;lon;timestamp;temperature;humidity
41435;DHT22;27177;22.262;114.192;2023-02-13T00:00:45;20.30;99.90
41435;DHT22;27177;22.262;114.192;2023-02-13T00:03:11;20.40;99.90
41435;DHT22;27177;22.262;114.192;2023-02-13T00:05:38;20.40;99.90
41435;DHT22;27177;22.262;114.192;2023-02-13T00:08:04;20.40;99.90
41435;DHT22;27177;22.262;114.192;2023-02-13T00:10:30;20.40;99.90
41435;DHT22;27177;22.262;114.192;2023-02-13T00:12:56;20.50;99.90
41435;DHT22;27177;22.262;114.192;2023-02-13T00:15:23;20.50;99.90
41435;DHT22;27177;22.262;114.192;2023-02-13T00:17:49;20.50;99.90
41435;DHT22;27177;22.262;114.192;2023-02-13T00:20:15;20.50;99.90
41435;DHT22;27177;22.262;114.192;2023-02-13T00:22:41;20.50;99.90
41435;DHT22;27177;22.262;114.192;2023-02-13T00:25:08;20.50;99.90
41435;DHT22;27177;22.262;114.192;2023-02-13T00:27:34;20.60;99.90
41435;DHT22;27177;22.262;114.192;2023-02-13T00:30:00;20.60;99.90
41435;DHT22;27177;22.262;114.192;2023-02-13T00:32:27;20.70;99.90
41435;DHT22;27177;22.262;114.192;2023-02-13T00:37:59;20.80;99.90
41435;DHT22;27177;22.262;114.192;2023-02-13T00:40:46;20.80;99.90
41435;DHT22;27177;22.262;114.192;2023-02-13T00:43:12;20.90;99.90
41435;DHT22;27177;22.262;114.192;2023-02-13T00:45:38;20.90;99.90
41435;DHT22;27177;22.262;114.192;2023-02-13T00:48:05;20.90;99.90
41435;DHT22;27177;22.262;114.192;2023-02-13T00:50:31;21.00;99.90
41435;DHT22;27177;22.262;114.192;2023-02-13T00:52:57;21.00;99.90
41435;DHT22;27177;22.262;114.192;2023-02-13T00:55:23;21.10;99.90
41435;DHT22;27177;22.262;114.192;2023-02-13T00:57:50;21.10;99.90
41435;DHT22;27177;22.262;114.192;2023-02-13T01:00:16;21.10;99.90
41435;DHT22;27177;22.262;114.192;2023-02-13T01:02:42;21.10;99.90
41435;DHT22;27177;22.262;114.192;2023-02-13T01:05:09;21.20;99.90
41435;DHT22;27177;22.262;114.192;2023-02-13T01:07:35;21.20;99.90
41435;DHT22;27177;22.262;114.192;2023-02-13T01:10:01;21.30;99.90
41435;DHT22;27177;22.262;114.192;2023-02-13T01:12:27;21.20;99.90
41435;DHT22;27177;22.262;114.192;2023-02-13T01:14:54;21.30;99.90
41435;DHT22;27177;22.262;114.192;2023-02-13T01:17:20;21.30;99.90
41435;DHT22;27177;22.262;114.192;2023-02-13T01:19:46;21.40;99.90
41435;DHT22;27177;22.262;114.192;2023-02-13T01:22:13;21.50;99.90
41435;DHT22;27177;22.262;114.192;2023-02-13T01:24:39;21.50;99.90
41435;DHT22;27177;22.262;114.192;2023-02-13T01:27:05;21.50;99.90
41435;DHT22;27177;22.262;114.192;2023-02-13T01:32:09;21.80;99.90
41435;DHT22;27177;22.262;114.192;2023-02-13T01:34:35;21.80;99.90
41435;DHT22;27177;22.262;114.192;2023-02-13T01:37:02;21.90;99.90
41435;DHT22;27177;22.262;114.192;2023-02-13T01:39:28;21.90;99.90
41435;DHT22;27177;22.262;114.192;2023-02-13T01:41:54;22.00;99.90
41435;DHT22;27177;22.262;114.192;2023-02-13T01:47:05;22.20;99.90
41435;DHT22;27177;22.262;114.192;2023-02-13T01:49:32;22.20;99.90
41435;DHT22;27177;22.262;114.192;2023-02-13T01:51:59;22.40;99.90
41435;DHT22;27177;22.262;114.192;2023-02-13T01:54:26;22.40;99.90
41435;DHT22;27177;22.262;114.192;2023-02-13T01:56:57;22.50;99.90
41435;DHT22;27177;22.262;114.192;2023-02-13T01:59:26;22.50;99.90
41435;DHT22;27177;22.262;114.192;2023-02-13T02:01:53;22.50;99.90
41435;DHT22;27177;22.262;114.192;2023-02-13T02:04:21;22.50;99.90
41435;DHT22;27177;22.262;114.192;2023-02-13T02:13:12;22.70;99.90
41435;DHT22;27177;22.262;114.192;2023-02-13T02:15:39;22.90;99.90
41435;DHT22;27177;22.262;114.192;2023-02-13T02:18:11;22.90;99.90
41435;DHT22;27177;22.262;114.192;2023-02-13T02:38:17;23.40;99.90
41435;DHT22;27177;22.262;114.192;2023-02-13T02:46:32;23.70;99.90
41435;DHT22;27177;22.262;114.192;2023-02-13T02:49:09;23.70;99.90
41435;DHT22;27177;22.262;114.192;2023-02-13T02:52:04;23.70;99.90
41435;DHT22;27177;22.262;114.192;2023-02-13T02:54:43;23.70;99.90
41435;DHT22;27177;22.262;114.192;2023-02-13T02:57:29;23.70;99.90
41435;DHT22;27177;22.262;114.192;2023-02-13T03:00:16;23.70;99.90
41435;DHT22;27177;22.262;114.192;2023-02-13T03:03:04;23.80;99.90
41435;DHT22;27177;22.262;114.192;2023-02-13T03:05:52;23.80;99.90
41435;DHT22;27177;22.262;114.192;2023-02-13T03:08:39;23.80;99.90
41435;DHT22;27177;22.262;114.192;2023-02-13T03:17:36;23.90;99.90
41435;DHT22;27177;22.262;114.192;2023-02-13T03:23:12;23.90;99.90
41435;DHT22;27177;22.262;114.192;2023-02-13T03:28:15;23.90;99.90
41435;DHT22;27177;22.262;114.192;2023-02-13T03:34:12;24.10;99.90
41435;DHT22;27177;22.262;114.192;2023-02-13T03:42:37;24.40;99.90
41435;DHT22;27177;22.262;114.192;2023-02-13T03:47:33;24.50;99.90
41435;DHT22;27177;22.262;114.192;2023-02-13T03:50:00;24.70;99.90
41435;DHT22;27177;22.262;114.192;2023-02-13T03:52:32;24.70;99.90
41435;DHT22;27177;22.262;114.192;2023-02-13T03:55:11;24.50;99.90
41435;DHT22;27177;22.262;114.192;2023-02-13T04:08:41;24.50;99.90
41435;DHT22;27177;22.262;114.192;2023-02-13T04:11:32;24.60;99.90
41435;DHT22;27177;22.262;114.192;2023-02-13T04:26:53;25.20;99.90
41435;DHT22;27177;22.262;114.192;2023-02-13T04:29:22;25.00;99.90
41435;DHT22;27177;22.262;114.192;2023-02-13T04:32:18;24.90;99.90
41435;DHT22;27177;22.262;114.192;2023-02-13T04:34:44;24.90;99.90
41435;DHT22;27177;22.262;114.192;2023-02-13T04:37:10;24.90;99.90
41435;DHT22;27177;22.262;114.192;2023-02-13T04:39:36;24.90;99.90
41435;DHT22;27177;22.262;114.192;2023-02-13T04:42:03;24.90;99.90
41435;DHT22;27177;22.262;114.192;2023-02-13T04:44:29;25.00;99.90
41435;DHT22;27177;22.262;114.192;2023-02-13T04:55:02;25.20;99.90
41435;DHT22;27177;22.262;114.192;2023-02-13T05:05:11;25.00;99.90
41435;DHT22;27177;22.262;114.192;2023-02-13T05:07:37;24.90;99.90
41435;DHT22;27177;22.262;114.192;2023-02-13T05:10:03;24.90;99.90
41435;DHT22;27177;22.262;114.192;2023-02-13T05:12:32;24.80;99.90
41435;DHT22;27177;22.262;114.192;2023-02-13T05:29:11;25.10;99.90
41435;DHT22;27177;22.262;114.192;2023-02-13T05:31:53;25.30;99.90
41435;DHT22;27177;22.262;114.192;2023-02-13T05:34:22;25.30;99.90
41435;DHT22;27177;22.262;114.192;2023-02-13T05:37:10;25.40;99.90
41435;DHT22;27177;22.262;114.192;2023-02-13T05:42:12;25.50;99.90
41435;DHT22;27177;22.262;114.192;2023-02-13T05:52:16;25.50;99.90
41435;DHT22;27177;22.262;114.192;2023-02-13T05:55:22;25.60;99.90
41435;DHT22;27177;22.262;114.192;2023-02-13T05:58:13;25.60;99.90
41435;DHT22;27177;22.262;114.192;2023-02-13T06:01:02;25.70;99.90
41435;DHT22;27177;22.262;114.192;2023-02-13T06:04:07;25.70;99.90
41435;DHT22;27177;22.262;114.192;2023-02-13T06:06:47;25.80;99.90
41435;DHT22;27177;22.262;114.192;2023-02-13T06:09:53;25.70;99.90
41435;DHT22;27177;22.262;114.192;2023-02-13T06:13:02;25.70;99.90
41435;DHT22;27177;22.262;114.192;2023-02-13T06:15:54;25.80;99.90
41435;DHT22;27177;22.262;114.192;2023-02-13T06:18:40;25.80;99.90
41435;DHT22;27177;22.262;114.192;2023-02-13T06:21:12;25.80;99.90
41435;DHT22;27177;22.262;114.192;2023-02-13T06:24:05;25.90;99.90
41435;DHT22;27177;22.262;114.192;2023-02-13T06:27:10;25.80;99.90
41435;DHT22;27177;22.262;114.192;2023-02-13T06:30:16;25.70;99.90
41435;DHT22;27177;22.262;114.192;2023-02-13T06:35:12;25.80;99.90
41435;DHT22;27177;22.262;114.192;2023-02-13T06:37:39;25.70;99.90
41435;DHT22;27177;22.262;114.192;2023-02-13T06:40:06;25.70;99.90
41435;DHT22;27177;22.262;114.192;2023-02-13T06:42:32;25.70;99.90
41435;DHT22;27177;22.262;114.192;2023-02-13T06:44:58;25.70;99.90
41435;DHT22;27177;22.262;114.192;2023-02-13T06:47:28;25.70;99.90
41435;DHT22;27177;22.262;114.192;2023-02-13T06:49:54;25.70;99.90
41435;DHT22;27177;22.262;114.192;2023-02-13T06:52:27;25.70;99.90
41435;DHT22;27177;22.262;114.192;2023-02-13T06:54:54;25.50;99.90
41435;DHT22;27177;22.262;114.192;2023-02-13T06:57:21;25.50;99.90
41435;DHT22;27177;22.262;114.192;2023-02-13T06:59:47;25.50;99.90
41435;DHT22;27177;22.262;114.192;2023-02-13T07:02:14;25.50;99.90
41435;DHT22;27177;22.262;114.192;2023-02-13T07:04:40;25.40;99.90
41435;DHT22;27177;22.262;114.192;2023-02-13T07:09:35;25.40;99.90
41435;DHT22;27177;22.262;114.192;2023-02-13T07:12:02;25.40;99.90
41435;DHT22;27177;22.262;114.192;2023-02-13T07:14:31;25.40;99.90
41435;DHT22;27177;22.262;114.192;2023-02-13T07:16:57;25.30;99.90
41435;DHT22;27177;22.262;114.192;2023-02-13T07:19:26;25.20;99.90
41435;DHT22;27177;22.262;114.192;2023-02-13T07:21:53;25.10;99.90
41435;DHT22;27177;22.262;114.192;2023-02-13T07:29:30;25.10;99.90
41435;DHT22;27177;22.262;114.192;2023-02-13T07:31:56;25.10;99.90
41435;DHT22;27177;22.262;114.192;2023-02-13T07:34:22;25.10;99.90
41435;DHT22;27177;22.262;114.192;2023-02-13T08:28:49;24.00;99.90
41435;DHT22;27177;22.262;114.192;2023-02-13T08:52:01;23.80;99.90
41435;DHT22;27177;22.262;114.192;2023-02-13T09:42:00;23.30;99.90
41435;DHT22;27177;22.262;114.192;2023-02-13T09:46:55;23.20;99.90
41435;DHT22;27177;22.262;114.192;2023-02-13T09:52:08;23.00;99.90
41435;DHT22;27177;22.262;114.192;2023-02-13T09:54:35;22.90;99.90
41435;DHT22;27177;22.262;114.192;2023-02-13T10:08:19;22.50;99.90
41435;DHT22;27177;22.262;114.192;2023-02-13T10:11:23;22.50;99.90
41435;DHT22;27177;22.262;114.192;2023-02-13T10:16:12;22.50;99.90
41435;DHT22;27177;22.262;114.192;2023-02-13T10:18:54;22.40;99.90
41435;DHT22;27177;22.262;114.192;2023-02-13T10:21:26;22.40;99.90
41435;DHT22;27177;22.262;114.192;2023-02-13T10:23:55;22.30;99.90
41435;DHT22;27177;22.262;114.192;2023-02-13T10:26:31;22.30;99.90
41435;DHT22;27177;22.262;114.192;2023-02-13T15:19:57;21.20;99.90
41435;DHT22;27177;22.262;114.192;2023-02-13T15:28:07;21.00;99.90
41435;DHT22;27177;22.262;114.192;2023-02-13T15:33:18;20.80;99.90
41435;DHT22;27177;22.262;114.192;2023-02-13T15:35:45;20.70;99.90
41435;DHT22;27177;22.262;114.192;2023-02-13T15:40:48;20.60;99.90
41435;DHT22;27177;22.262;114.192;2023-02-13T15:46:05;20.50;99.90
41435;DHT22;27177;22.262;114.192;2023-02-13T15:48:33;20.50;99.90
41435;DHT22;27177;22.262;114.192;2023-02-13T15:51:03;20.40;99.90
41435;DHT22;27177;22.262;114.192;2023-02-13T15:53:31;20.30;99.90
41435;DHT22;27177;22.262;114.192;2023-02-13T15:56:02;20.20;99.90
41435;DHT22;27177;22.262;114.192;2023-02-13T15:58:31;20.20;99.90
41435;DHT22;27177;22.262;114.192;2023-02-13T16:01:04;20.10;99.90
41435;DHT22;27177;22.262;114.192;2023-02-13T16:03:32;20.00;99.90
41435;DHT22;27177;22.262;114.192;2023-02-13T16:05:58;19.90;99.90
41435;DHT22;27177;22.262;114.192;2023-02-13T16:08:32;19.80;99.90
41435;DHT22;27177;22.262;114.192;2023-02-13T16:13:59;19.60;99.90
41435;DHT22;27177;22.262;114.192;2023-02-13T16:16:27;19.50;99.90
41435;DHT22;27177;22.262;114.192;2023-02-13T16:18:55;19.40;99.90
41435;DHT22;27177;22.262;114.192;2023-02-13T16:21:22;19.30;99.90
41435;DHT22;27177;22.262;114.192;2023-02-13T16:23:51;19.20;99.90
41435;DHT22;27177;22.262;114.192;2023-02-13T16:26:23;19.20;99.90
41435;DHT22;27177;22.262;114.192;2023-02-13T16:28:50;19.20;99.90
41435;DHT22;27177;22.262;114.192;2023-02-13T16:31:16;19.10;99.90
41435;DHT22;27177;22.262;114.192;2023-02-13T16:33:52;19.00;99.90
41435;DHT22;27177;22.262;114.192;2023-02-13T16:36:28;18.90;99.90
41435;DHT22;27177;22.262;114.192;2023-02-13T16:38:58;18.90;99.90
41435;DHT22;27177;22.262;114.192;2023-02-13T16:41:42;18.80;99.90
41435;DHT22;27177;22.262;114.192;2023-02-13T16:44:24;18.80;99.90
41435;DHT22;27177;22.262;114.192;2023-02-13T16:49:29;18.80;99.90
41435;DHT22;27177;22.262;114.192;2023-02-13T16:54:45;18.70;99.90
41435;DHT22;27177;22.262;114.192;2023-02-13T16:57:19;18.70;99.90
41435;DHT22;27177;22.262;114.192;2023-02-13T17:00:04;18.70;99.90
41435;DHT22;27177;22.262;114.192;2023-02-13T17:02:38;18.70;99.90
41435;DHT22;27177;22.262;114.192;2023-02-13T17:07:36;18.70;99.90
41435;DHT22;27177;22.262;114.192;2023-02-13T17:10:09;18.70;99.90
41435;DHT22;27177;22.262;114.192;2023-02-13T17:12:38;18.70;99.90
41435;DHT22;27177;22.262;114.192;2023-02-13T17:15:06;18.60;99.90
41435;DHT22;27177;22.262;114.192;2023-02-13T17:17:37;18.60;99.90
41435;DHT22;27177;22.262;114.192;2023-02-13T17:20:04;18.50;99.90
41435;DHT22;27177;22.262;114.192;2023-02-13T17:22:33;18.50;99.90
41435;DHT22;27177;22.262;114.192;2023-02-13T17:25:06;18.60;99.90
41435;DHT22;27177;22.262;114.192;2023-02-13T17:27:37;18.60;99.90
41435;DHT22;27177;22.262;114.192;2023-02-13T17:30:03;18.60;99.90
41435;DHT22;27177;22.262;114.192;2023-02-13T17:32:29;18.50;99.90
41435;DHT22;27177;22.262;114.192;2023-02-13T17:34:56;18.50;99.90
41435;DHT22;27177;22.262;114.192;2023-02-13T17:37:31;18.50;99.90
41435;DHT22;27177;22.262;114.192;2023-02-13T17:39:58;18.40;99.90
41435;DHT22;27177;22.262;114.192;2023-02-13T17:42:25;18.40;99.90
41435;DHT22;27177;22.262;114.192;2023-02-13T17:44:53;18.40;99.90
41435;DHT22;27177;22.262;114.192;2023-02-13T17:47:20;18.30;99.90
41435;DHT22;27177;22.262;114.192;2023-02-13T17:49:46;18.30;99.90
41435;DHT22;27177;22.262;114.192;2023-02-13T17:52:17;18.30;99.90
41435;DHT22;27177;22.262;114.192;2023-02-13T17:54:44;18.20;99.90
41435;DHT22;27177;22.262;114.192;2023-02-13T17:57:11;18.20;99.90
41435;DHT22;27177;22.262;114.192;2023-02-13T17:59:38;18.20;99.90
41435;DHT22;27177;22.262;114.192;2023-02-13T18:02:15;18.20;99.90
41435;DHT22;27177;22.262;114.192;2023-02-13T18:04:46;18.10;99.90
41435;DHT22;27177;22.262;114.192;2023-02-13T18:07:17;18.10;99.90
41435;DHT22;27177;22.262;114.192;2023-02-13T18:09:43;18.10;99.90
41435;DHT22;27177;22.262;114.192;2023-02-13T18:12:14;18.10;99.90
41435;DHT22;27177;22.262;114.192;2023-02-13T18:14:41;18.10;99.90
41435;DHT22;27177;22.262;114.192;2023-02-13T18:17:07;18.10;99.90
41435;DHT22;27177;22.262;114.192;2023-02-13T18:19:34;18.10;99.90
41435;DHT22;27177;22.262;114.192;2023-02-13T18:22:02;18.10;99.90
41435;DHT22;27177;22.262;114.192;2023-02-13T18:24:30;18.10;99.90
41435;DHT22;27177;22.262;114.192;2023-02-13T18:26:57;18.10;99.90
41435;DHT22;27177;22.262;114.192;2023-02-13T18:29:23;18.10;99.90
41435;DHT22;27177;22.262;114.192;2023-02-13T18:31:50;18.10;99.90
41435;DHT22;27177;22.262;114.192;2023-02-13T18:34:23;18.10;99.90
41435;DHT22;27177;22.262;114.192;2023-02-13T18:36:49;18.20;99.90
41435;DHT22;27177;22.262;114.192;2023-02-13T18:39:48;18.20;99.90
41435;DHT22;27177;22.262;114.192;2023-02-13T18:42:08;18.20;99.90
41435;DHT22;27177;22.262;114.192;2023-02-13T18:44:39;18.30;99.90
41435;DHT22;27177;22.262;114.192;2023-02-13T18:47:06;18.40;99.90
41435;DHT22;27177;22.262;114.192;2023-02-13T18:49:33;18.40;99.90
41435;DHT22;27177;22.262;114.192;2023-02-13T18:51:59;18.40;99.90
41435;DHT22;27177;22.262;114.192;2023-02-13T18:54:32;18.40;99.90
41435;DHT22;27177;22.262;114.192;2023-02-13T18:57:04;18.40;99.90
41435;DHT22;27177;22.262;114.192;2023-02-13T18:59:31;18.40;99.90
41435;DHT22;27177;22.262;114.192;2023-02-13T19:01:57;18.40;99.90
41435;DHT22;27177;22.262;114.192;2023-02-13T19:04:27;18.40;99.90
41435;DHT22;27177;22.262;114.192;2023-02-13T19:06:53;18.40;99.90
41435;DHT22;27177;22.262;114.192;2023-02-13T19:09:22;18.40;99.90
41435;DHT22;27177;22.262;114.192;2023-02-13T19:12:05;18.40;99.90
41435;DHT22;27177;22.262;114.192;2023-02-13T19:14:31;18.50;99.90
41435;DHT22;27177;22.262;114.192;2023-02-13T19:16:58;18.50;99.90
41435;DHT22;27177;22.262;114.192;2023-02-13T19:19:28;18.50;99.90
41435;DHT22;27177;22.262;114.192;2023-02-13T19:21:54;18.40;99.90
41435;DHT22;27177;22.262;114.192;2023-02-13T19:26:56;18.40;99.90
41435;DHT22;27177;22.262;114.192;2023-02-13T19:29:22;18.40;99.90
41435;DHT22;27177;22.262;114.192;2023-02-13T19:34:20;18.30;99.90
41435;DHT22;27177;22.262;114.192;2023-02-13T19:36:48;18.30;99.90
41435;DHT22;27177;22.262;114.192;2023-02-13T19:39:16;18.30;99.90
41435;DHT22;27177;22.262;114.192;2023-02-13T19:41:43;18.20;99.90
41435;DHT22;27177;22.262;114.192;2023-02-13T19:44:11;18.20;99.90
41435;DHT22;27177;22.262;114.192;2023-02-13T19:46:37;18.20;99.90
41435;DHT22;27177;22.262;114.192;2023-02-13T19:49:04;18.10;99.90
41435;DHT22;27177;22.262;114.192;2023-02-13T19:51:32;18.10;99.90
41435;DHT22;27177;22.262;114.192;2023-02-13T19:54:03;18.10;99.90
41435;DHT22;27177;22.262;114.192;2023-02-13T19:56:31;18.10;99.90
41435;DHT22;27177;22.262;114.192;2023-02-13T19:59:01;18.10;99.90
41435;DHT22;27177;22.262;114.192;2023-02-13T20:01:32;18.10;99.90
41435;DHT22;27177;22.262;114.192;2023-02-13T20:03:59;18.00;99.90
41435;DHT22;27177;22.262;114.192;2023-02-13T20:09:25;18.00;99.90
41435;DHT22;27177;22.262;114.192;2023-02-13T20:11:51;18.00;99.90
41435;DHT22;27177;22.262;114.192;2023-02-13T20:14:21;18.00;99.90
41435;DHT22;27177;22.262;114.192;2023-02-13T20:16:51;18.00;99.90
41435;DHT22;27177;22.262;114.192;2023-02-13T20:19:18;17.90;99.90
41435;DHT22;27177;22.262;114.192;2023-02-13T20:21:44;17.90;99.90
41435;DHT22;27177;22.262;114.192;2023-02-13T20:24:23;17.90;99.90
41435;DHT22;27177;22.262;114.192;2023-02-13T20:26:50;17.90;99.90
41435;DHT22;27177;22.262;114.192;2023-02-13T20:29:17;17.80;99.90
41435;DHT22;27177;22.262;114.192;2023-02-13T20:31:45;17.80;99.90
41435;DHT22;27177;22.262;114.192;2023-02-13T20:34:14;17.80;99.90
41435;DHT22;27177;22.262;114.192;2023-02-13T20:36:41;17.80;99.90
41435;DHT22;27177;22.262;114.192;2023-02-13T20:39:13;17.80;99.90
41435;DHT22;27177;22.262;114.192;2023-02-13T20:41:40;17.70;99.90
41435;DHT22;27177;22.262;114.192;2023-02-13T20:44:10;17.70;99.90
41435;DHT22;27177;22.262;114.192;2023-02-13T20:46:44;17.70;99.90
41435;DHT22;27177;22.262;114.192;2023-02-13T20:49:11;17.70;99.90
41435;DHT22;27177;22.262;114.192;2023-02-13T20:51:37;17.60;99.90
41435;DHT22;27177;22.262;114.192;2023-02-13T20:54:08;17.60;99.90
41435;DHT22;27177;22.262;114.192;2023-02-13T20:56:34;17.60;99.90
41435;DHT22;27177;22.262;114.192;2023-02-13T20:59:01;17.60;99.90
41435;DHT22;27177;22.262;114.192;2023-02-13T21:01:29;17.60;99.90
41435;DHT22;27177;22.262;114.192;2023-02-13T21:03:56;17.60;99.90
41435;DHT22;27177;22.262;114.192;2023-02-13T21:06:25;17.60;99.90
41435;DHT22;27177;22.262;114.192;2023-02-13T21:08:52;17.60;99.90
41435;DHT22;27177;22.262;114.192;2023-02-13T21:11:19;17.50;99.90
41435;DHT22;27177;22.262;114.192;2023-02-13T21:13:46;17.50;99.90
41435;DHT22;27177;22.262;114.192;2023-02-13T21:16:14;17.50;99.90
41435;DHT22;27177;22.262;114.192;2023-02-13T21:18:41;17.50;99.90
41435;DHT22;27177;22.262;114.192;2023-02-13T21:21:08;17.50;99.90
41435;DHT22;27177;22.262;114.192;2023-02-13T21:23:35;17.50;99.90
41435;DHT22;27177;22.262;114.192;2023-02-13T21:26:06;17.40;99.90
41435;DHT22;27177;22.262;114.192;2023-02-13T21:28:34;17.50;99.90
41435;DHT22;27177;22.262;114.192;2023-02-13T21:31:07;17.50;99.90
41435;DHT22;27177;22.262;114.192;2023-02-13T21:33:34;17.50;99.90
41435;DHT22;27177;22.262;114.192;2023-02-13T21:36:01;17.40;99.90
41435;DHT22;27177;22.262;114.192;2023-02-13T21:38:28;17.40;99.90
41435;DHT22;27177;22.262;114.192;2023-02-13T21:40:55;17.40;99.90
41435;DHT22;27177;22.262;114.192;2023-02-13T21:43:21;17.30;99.90
41435;DHT22;27177;22.262;114.192;2023-02-13T21:45:48;17.30;99.90
41435;DHT22;27177;22.262;114.192;2023-02-13T21:48:14;17.30;99.90
41435;DHT22;27177;22.262;114.192;2023-02-13T21:50:40;17.30;99.90
41435;DHT22;27177;22.262;114.192;2023-02-13T21:53:07;17.30;99.90
41435;DHT22;27177;22.262;114.192;2023-02-13T21:55:33;17.30;99.90
41435;DHT22;27177;22.262;114.192;2023-02-13T21:57:59;17.20;99.90
41435;DHT22;27177;22.262;114.192;2023-02-13T22:00:25;17.20;99.90
41435;DHT22;27177;22.262;114.192;2023-02-13T22:02:52;17.10;99.90
41435;DHT22;27177;22.262;114.192;2023-02-13T22:05:18;17.10;99.90
41435;DHT22;27177;22.262;114.192;2023-02-13T22:07:44;17.00;99.90
41435;DHT22;27177;22.262;114.192;2023-02-13T22:10:29;17.00;99.90
41435;DHT22;27177;22.262;114.192;2023-02-13T22:12:55;17.10;99.90
41435;DHT22;27177;22.262;114.192;2023-02-13T22:15:21;17.10;99.90
41435;DHT22;27177;22.262;114.192;2023-02-13T22:17:47;17.10;99.90
41435;DHT22;27177;22.262;114.192;2023-02-13T22:20:14;17.00;99.90
41435;DHT22;27177;22.262;114.192;2023-02-13T22:22:40;17.00;99.90
41435;DHT22;27177;22.262;114.192;2023-02-13T22:25:06;17.00;99.90
41435;DHT22;27177;22.262;114.192;2023-02-13T22:27:33;16.90;99.90
41435;DHT22;27177;22.262;114.192;2023-02-13T22:29:59;16.80;99.90
41435;DHT22;27177;22.262;114.192;2023-02-13T22:32:26;16.70;99.90
41435;DHT22;27177;22.262;114.192;2023-02-13T22:34:53;16.60;99.90
41435;DHT22;27177;22.262;114.192;2023-02-13T22:37:19;16.60;99.90
41435;DHT22;27177;22.262;114.192;2023-02-13T22:39:45;16.50;99.90
41435;DHT22;27177;22.262;114.192;2023-02-13T22:42:11;16.50;99.90
41435;DHT22;27177;22.262;114.192;2023-02-13T22:44:38;16.60;99.90
41435;DHT22;27177;22.262;114.192;2023-02-13T22:47:05;16.60;99.90
41435;DHT22;27177;22.262;114.192;2023-02-13T22:49:31;16.50;99.90
41435;DHT22;27177;22.262;114.192;2023-02-13T22:51:59;16.50;99.90
41435;DHT22;27177;22.262;114.192;2023-02-13T22:54:25;16.50;99.90
41435;DHT22;27177;22.262;114.192;2023-02-13T22:56:52;16.50;99.90
41435;DHT22;27177;22.262;114.192;2023-02-13T22:59:18;16.50;99.90
41435;DHT22;27177;22.262;114.192;2023-02-13T23:01:44;16.50;99.90
41435;DHT22;27177;22.262;114.192;2023-02-13T23:04:16;16.50;99.90
41435;DHT22;27177;22.262;114.192;2023-02-13T23:06:42;16.40;99.90
41435;DHT22;27177;22.262;114.192;2023-02-13T23:09:08;16.40;99.90
41435;DHT22;27177;22.262;114.192;2023-02-13T23:11:35;16.40;99.90
41435;DHT22;27177;22.262;114.192;2023-02-13T23:14:21;16.40;99.90
41435;DHT22;27177;22.262;114.192;2023-02-13T23:16:47;16.50;99.90
41435;DHT22;27177;22.262;114.192;2023-02-13T23:19:31;16.50;99.90
41435;DHT22;27177;22.262;114.192;2023-02-13T23:21:58;16.50;99.90
41435;DHT22;27177;22.262;114.192;2023-02-13T23:24:24;16.60;99.90
41435;DHT22;27177;22.262;114.192;2023-02-13T23:26:51;16.50;99.90
41435;DHT22;27177;22.262;114.192;2023-02-13T23:29:17;16.60;99.90
41435;DHT22;27177;22.262;114.192;2023-02-13T23:31:44;16.60;99.90
41435;DHT22;27177;22.262;114.192;2023-02-13T23:34:10;16.50;99.90
41435;DHT22;27177;22.262;114.192;2023-02-13T23:36:36;16.60;99.90
41435;DHT22;27177;22.262;114.192;2023-02-13T23:39:02;16.60;99.90
41435;DHT22;27177;22.262;114.192;2023-02-13T23:41:29;16.60;99.90
41435;DHT22;27177;22.262;114.192;2023-02-13T23:43:55;16.60;99.90
41435;DHT22;27177;22.262;114.192;2023-02-13T23:46:21;16.60;99.90
41435;DHT22;27177;22.262;114.192;2023-02-13T23:48:47;16.60;99.90
41435;DHT22;27177;22.262;114.192;2023-02-13T23:51:14;16.50;99.90
41435;DHT22;27177;22.262;114.192;2023-02-13T23:53:40;16.50;99.90
41435;DHT22;27177;22.262;114.192;2023-02-13T23:56:06;16.50;99.90
41435;DHT22;27177;22.262;114.192;2023-02-13T23:58:32;16.50;99.90
